sensor_id;sensor_type;location;lat;lon;timestamp;temperature;humidity
41344;DHT22;27089;50.022;7.604;2022-12-18T00:02:10;-6.30;99.90
41344;DHT22;27089;50.022;7.604;2022-12-18T00:04:37;-6.10;99.90
41344;DHT22;27089;50.022;7.604;2022-12-18T00:07:04;-5.90;99.90
41344;DHT22;27089;50.022;7.604;2022-12-18T00:09:31;-5.80;99.90
41344;DHT22;27089;50.022;7.604;2022-12-18T00:11:58;-6.00;99.90
41344;DHT22;27089;50.022;7.604;2022-12-18T00:14:25;-6.00;99.90
41344;DHT22;27089;50.022;7.604;2022-12-18T00:16:53;-6.10;99.90
41344;DHT22;27089;50.022;7.604;2022-12-18T00:19:21;-5.90;99.90
41344;DHT22;27089;50.022;7.604;2022-12-18T00:21:47;-5.90;99.90
41344;DHT22;27089;50.022;7.604;2022-12-18T00:24:14;-5.80;99.90
41344;DHT22;27089;50.022;7.604;2022-12-18T00:26:41;-5.70;99.90
41344;DHT22;27089;50.022;7.604;2022-12-18T00:29:11;-5.60;99.90
41344;DHT22;27089;50.022;7.604;2022-12-18T00:31:40;-5.50;99.90
41344;DHT22;27089;50.022;7.604;2022-12-18T00:34:11;-5.50;99.90
41344;DHT22;27089;50.022;7.604;2022-12-18T00:36:39;-5.50;99.90
41344;DHT22;27089;50.022;7.604;2022-12-18T00:39:07;-5.40;99.90
41344;DHT22;27089;50.022;7.604;2022-12-18T00:41:34;-5.30;99.90
41344;DHT22;27089;50.022;7.604;2022-12-18T00:44:19;-5.20;99.90
41344;DHT22;27089;50.022;7.604;2022-12-18T00:46:47;-5.20;99.90
41344;DHT22;27089;50.022;7.604;2022-12-18T00:49:19;-5.20;99.90
41344;DHT22;27089;50.022;7.604;2022-12-18T00:51:47;-5.20;99.90
41344;DHT22;27089;50.022;7.604;2022-12-18T00:54:15;-5.20;99.90
41344;DHT22;27089;50.022;7.604;2022-12-18T00:56:42;-5.10;99.90
41344;DHT22;27089;50.022;7.604;2022-12-18T00:59:09;-5.00;99.90
41344;DHT22;27089;50.022;7.604;2022-12-18T01:01:36;-5.00;99.90
41344;DHT22;27089;50.022;7.604;2022-12-18T01:04:03;-4.90;99.90
41344;DHT22;27089;50.022;7.604;2022-12-18T01:06:32;-4.90;99.90
41344;DHT22;27089;50.022;7.604;2022-12-18T01:08:59;-5.00;99.90
41344;DHT22;27089;50.022;7.604;2022-12-18T01:11:26;-4.90;99.90
41344;DHT22;27089;50.022;7.604;2022-12-18T01:13:53;-4.90;99.90
41344;DHT22;27089;50.022;7.604;2022-12-18T01:16:21;-4.90;99.90
41344;DHT22;27089;50.022;7.604;2022-12-18T01:18:52;-4.90;99.90
41344;DHT22;27089;50.022;7.604;2022-12-18T01:21:20;-5.00;99.90
41344;DHT22;27089;50.022;7.604;2022-12-18T01:23:52;-5.00;99.90
41344;DHT22;27089;50.022;7.604;2022-12-18T01:26:19;-4.90;99.90
41344;DHT22;27089;50.022;7.604;2022-12-18T01:28:47;-4.90;99.90
41344;DHT22;27089;50.022;7.604;2022-12-18T01:31:17;-4.90;99.90
41344;DHT22;27089;50.022;7.604;2022-12-18T01:33:44;-5.00;99.90
41344;DHT22;27089;50.022;7.604;2022-12-18T01:36:16;-5.00;99.90
41344;DHT22;27089;50.022;7.604;2022-12-18T01:38:43;-5.00;99.90
41344;DHT22;27089;50.022;7.604;2022-12-18T01:41:13;-5.10;99.90
41344;DHT22;27089;50.022;7.604;2022-12-18T01:43:42;-5.10;99.90
41344;DHT22;27089;50.022;7.604;2022-12-18T01:46:09;-5.10;99.90
41344;DHT22;27089;50.022;7.604;2022-12-18T01:48:36;-5.10;99.90
41344;DHT22;27089;50.022;7.604;2022-12-18T01:51:05;-5.30;99.90
41344;DHT22;27089;50.022;7.604;2022-12-18T01:53:32;-5.40;99.90
41344;DHT22;27089;50.022;7.604;2022-12-18T01:55:59;-5.50;99.90
41344;DHT22;27089;50.022;7.604;2022-12-18T01:58:34;-5.70;99.90
41344;DHT22;27089;50.022;7.604;2022-12-18T02:01:02;-5.80;99.90
41344;DHT22;27089;50.022;7.604;2022-12-18T02:03:29;-6.10;99.90
41344;DHT22;27089;50.022;7.604;2022-12-18T02:06:01;-6.10;99.90
41344;DHT22;27089;50.022;7.604;2022-12-18T02:08:36;-6.30;99.90
41344;DHT22;27089;50.022;7.604;2022-12-18T02:11:09;-6.40;99.90
41344;DHT22;27089;50.022;7.604;2022-12-18T02:13:43;-6.40;99.90
41344;DHT22;27089;50.022;7.604;2022-12-18T02:16:21;-6.30;99.90
41344;DHT22;27089;50.022;7.604;2022-12-18T02:18:55;-6.20;99.90
41344;DHT22;27089;50.022;7.604;2022-12-18T02:21:30;-6.10;99.90
41344;DHT22;27089;50.022;7.604;2022-12-18T02:24:10;-6.00;99.90
41344;DHT22;27089;50.022;7.604;2022-12-18T02:26:44;-5.90;99.90
41344;DHT22;27089;50.022;7.604;2022-12-18T02:29:15;-5.90;99.90
41344;DHT22;27089;50.022;7.604;2022-12-18T02:31:47;-5.90;99.90
41344;DHT22;27089;50.022;7.604;2022-12-18T02:34:16;-6.00;99.90
41344;DHT22;27089;50.022;7.604;2022-12-18T02:36:44;-6.00;99.90
41344;DHT22;27089;50.022;7.604;2022-12-18T02:39:13;-6.00;99.90
41344;DHT22;27089;50.022;7.604;2022-12-18T02:41:43;-5.90;99.90
41344;DHT22;27089;50.022;7.604;2022-12-18T02:44:13;-5.90;99.90
41344;DHT22;27089;50.022;7.604;2022-12-18T02:46:42;-5.80;99.90
41344;DHT22;27089;50.022;7.604;2022-12-18T02:49:23;-5.80;99.90
41344;DHT22;27089;50.022;7.604;2022-12-18T02:51:53;-5.90;99.90
41344;DHT22;27089;50.022;7.604;2022-12-18T02:54:32;-5.80;99.90
41344;DHT22;27089;50.022;7.604;2022-12-18T02:57:13;-5.70;99.90
41344;DHT22;27089;50.022;7.604;2022-12-18T02:59:47;-5.60;99.90
41344;DHT22;27089;50.022;7.604;2022-12-18T03:02:21;-5.70;99.90
41344;DHT22;27089;50.022;7.604;2022-12-18T03:04:56;-5.70;99.90
41344;DHT22;27089;50.022;7.604;2022-12-18T03:07:32;-5.70;99.90
41344;DHT22;27089;50.022;7.604;2022-12-18T03:10:00;-5.80;99.90
41344;DHT22;27089;50.022;7.604;2022-12-18T03:12:32;-5.80;99.90
41344;DHT22;27089;50.022;7.604;2022-12-18T03:15:04;-5.90;99.90
41344;DHT22;27089;50.022;7.604;2022-12-18T03:17:34;-5.90;99.90
41344;DHT22;27089;50.022;7.604;2022-12-18T03:20:05;-6.00;99.90
41344;DHT22;27089;50.022;7.604;2022-12-18T03:22:35;-6.10;99.90
41344;DHT22;27089;50.022;7.604;2022-12-18T03:25:07;-6.10;99.90
41344;DHT22;27089;50.022;7.604;2022-12-18T03:27:38;-6.20;99.90
41344;DHT22;27089;50.022;7.604;2022-12-18T03:30:10;-6.30;99.90
41344;DHT22;27089;50.022;7.604;2022-12-18T03:32:41;-6.30;99.90
41344;DHT22;27089;50.022;7.604;2022-12-18T03:35:11;-6.30;99.90
41344;DHT22;27089;50.022;7.604;2022-12-18T03:37:39;-6.30;99.90
41344;DHT22;27089;50.022;7.604;2022-12-18T03:40:07;-6.40;99.90
41344;DHT22;27089;50.022;7.604;2022-12-18T03:42:43;-6.60;99.90
41344;DHT22;27089;50.022;7.604;2022-12-18T03:45:15;-6.80;99.90
41344;DHT22;27089;50.022;7.604;2022-12-18T03:47:54;-6.70;99.90
41344;DHT22;27089;50.022;7.604;2022-12-18T03:50:27;-6.50;99.90
41344;DHT22;27089;50.022;7.604;2022-12-18T03:52:59;-6.50;99.90
41344;DHT22;27089;50.022;7.604;2022-12-18T03:55:31;-6.70;99.90
41344;DHT22;27089;50.022;7.604;2022-12-18T03:58:03;-6.70;99.90
41344;DHT22;27089;50.022;7.604;2022-12-18T04:00:31;-6.70;99.90
41344;DHT22;27089;50.022;7.604;2022-12-18T04:03:00;-6.60;99.90
41344;DHT22;27089;50.022;7.604;2022-12-18T04:05:28;-6.50;99.90
41344;DHT22;27089;50.022;7.604;2022-12-18T04:07:56;-6.50;99.90
41344;DHT22;27089;50.022;7.604;2022-12-18T04:10:23;-6.60;99.90
41344;DHT22;27089;50.022;7.604;2022-12-18T04:12:51;-6.70;99.90
41344;DHT22;27089;50.022;7.604;2022-12-18T04:15:23;-6.60;99.90
41344;DHT22;27089;50.022;7.604;2022-12-18T04:17:50;-6.60;99.90
41344;DHT22;27089;50.022;7.604;2022-12-18T04:20:18;-6.60;99.90
41344;DHT22;27089;50.022;7.604;2022-12-18T04:22:45;-6.60;99.90
41344;DHT22;27089;50.022;7.604;2022-12-18T04:25:12;-6.70;99.90
41344;DHT22;27089;50.022;7.604;2022-12-18T04:27:39;-6.60;99.90
41344;DHT22;27089;50.022;7.604;2022-12-18T04:30:07;-6.70;99.90
41344;DHT22;27089;50.022;7.604;2022-12-18T04:32:36;-6.70;99.90
41344;DHT22;27089;50.022;7.604;2022-12-18T04:35:03;-6.70;99.90
41344;DHT22;27089;50.022;7.604;2022-12-18T04:37:32;-6.60;99.90
41344;DHT22;27089;50.022;7.604;2022-12-18T04:39:59;-6.60;99.90
41344;DHT22;27089;50.022;7.604;2022-12-18T04:42:26;-6.50;99.90
41344;DHT22;27089;50.022;7.604;2022-12-18T04:44:52;-6.40;99.90
41344;DHT22;27089;50.022;7.604;2022-12-18T04:47:19;-6.30;99.90
41344;DHT22;27089;50.022;7.604;2022-12-18T04:49:48;-6.20;99.90
41344;DHT22;27089;50.022;7.604;2022-12-18T04:52:15;-6.10;99.90
41344;DHT22;27089;50.022;7.604;2022-12-18T04:54:42;-6.10;99.90
41344;DHT22;27089;50.022;7.604;2022-12-18T04:57:09;-6.20;99.90
41344;DHT22;27089;50.022;7.604;2022-12-18T04:59:36;-6.20;99.90
41344;DHT22;27089;50.022;7.604;2022-12-18T05:02:03;-6.10;99.90
41344;DHT22;27089;50.022;7.604;2022-12-18T05:04:29;-6.00;99.90
41344;DHT22;27089;50.022;7.604;2022-12-18T05:06:58;-5.90;99.90
41344;DHT22;27089;50.022;7.604;2022-12-18T05:09:25;-5.90;99.90
41344;DHT22;27089;50.022;7.604;2022-12-18T05:11:52;-5.70;99.90
41344;DHT22;27089;50.022;7.604;2022-12-18T05:14:19;-5.70;99.90
41344;DHT22;27089;50.022;7.604;2022-12-18T05:16:46;-5.70;99.90
41344;DHT22;27089;50.022;7.604;2022-12-18T05:19:13;-5.70;99.90
41344;DHT22;27089;50.022;7.604;2022-12-18T05:21:40;-5.80;99.90
41344;DHT22;27089;50.022;7.604;2022-12-18T05:24:08;-5.80;99.90
41344;DHT22;27089;50.022;7.604;2022-12-18T05:26:35;-5.90;99.90
41344;DHT22;27089;50.022;7.604;2022-12-18T05:29:02;-5.90;99.90
41344;DHT22;27089;50.022;7.604;2022-12-18T05:31:29;-5.90;99.90
41344;DHT22;27089;50.022;7.604;2022-12-18T05:33:57;-5.80;99.90
41344;DHT22;27089;50.022;7.604;2022-12-18T05:36:24;-5.80;99.90
41344;DHT22;27089;50.022;7.604;2022-12-18T05:38:51;-5.70;99.90
41344;DHT22;27089;50.022;7.604;2022-12-18T05:41:19;-5.70;99.90
41344;DHT22;27089;50.022;7.604;2022-12-18T05:43:46;-5.60;99.90
41344;DHT22;27089;50.022;7.604;2022-12-18T05:46:15;-5.60;99.90
41344;DHT22;27089;50.022;7.604;2022-12-18T05:48:43;-5.60;99.90
41344;DHT22;27089;50.022;7.604;2022-12-18T05:51:13;-5.70;99.90
41344;DHT22;27089;50.022;7.604;2022-12-18T05:53:41;-5.70;99.90
41344;DHT22;27089;50.022;7.604;2022-12-18T05:56:10;-5.70;99.90
41344;DHT22;27089;50.022;7.604;2022-12-18T05:58:39;-5.70;99.90
41344;DHT22;27089;50.022;7.604;2022-12-18T06:01:08;-5.60;99.90
41344;DHT22;27089;50.022;7.604;2022-12-18T06:03:35;-5.60;99.90
41344;DHT22;27089;50.022;7.604;2022-12-18T06:06:03;-5.60;99.90
41344;DHT22;27089;50.022;7.604;2022-12-18T06:08:30;-5.70;99.90
41344;DHT22;27089;50.022;7.604;2022-12-18T06:10:57;-5.70;99.90
41344;DHT22;27089;50.022;7.604;2022-12-18T06:13:24;-5.70;99.90
41344;DHT22;27089;50.022;7.604;2022-12-18T06:15:52;-5.80;99.90
41344;DHT22;27089;50.022;7.604;2022-12-18T06:18:19;-5.80;99.90
41344;DHT22;27089;50.022;7.604;2022-12-18T06:20:54;-5.80;99.90
41344;DHT22;27089;50.022;7.604;2022-12-18T06:23:22;-5.80;99.90
41344;DHT22;27089;50.022;7.604;2022-12-18T06:25:49;-5.90;99.90
41344;DHT22;27089;50.022;7.604;2022-12-18T06:28:16;-5.90;99.90
41344;DHT22;27089;50.022;7.604;2022-12-18T06:30:43;-5.90;99.90
41344;DHT22;27089;50.022;7.604;2022-12-18T06:33:12;-5.90;99.90
41344;DHT22;27089;50.022;7.604;2022-12-18T06:35:38;-5.90;99.90
41344;DHT22;27089;50.022;7.604;2022-12-18T06:38:06;-6.00;99.90
41344;DHT22;27089;50.022;7.604;2022-12-18T06:40:33;-6.00;99.90
41344;DHT22;27089;50.022;7.604;2022-12-18T06:43:00;-6.10;99.90
41344;DHT22;27089;50.022;7.604;2022-12-18T06:45:27;-6.10;99.90
41344;DHT22;27089;50.022;7.604;2022-12-18T06:47:54;-6.10;99.90
41344;DHT22;27089;50.022;7.604;2022-12-18T06:50:22;-6.10;99.90
41344;DHT22;27089;50.022;7.604;2022-12-18T06:52:49;-6.10;99.90
41344;DHT22;27089;50.022;7.604;2022-12-18T06:55:16;-6.10;99.90
41344;DHT22;27089;50.022;7.604;2022-12-18T06:57:43;-6.10;99.90
41344;DHT22;27089;50.022;7.604;2022-12-18T07:00:11;-6.10;99.90
41344;DHT22;27089;50.022;7.604;2022-12-18T07:02:39;-6.10;99.90
41344;DHT22;27089;50.022;7.604;2022-12-18T07:05:06;-6.10;99.90
41344;DHT22;27089;50.022;7.604;2022-12-18T07:07:35;-6.10;99.90
41344;DHT22;27089;50.022;7.604;2022-12-18T07:10:02;-6.10;99.90
41344;DHT22;27089;50.022;7.604;2022-12-18T07:12:29;-6.10;99.90
41344;DHT22;27089;50.022;7.604;2022-12-18T07:14:56;-6.00;99.90
41344;DHT22;27089;50.022;7.604;2022-12-18T07:17:23;-6.00;99.90
41344;DHT22;27089;50.022;7.604;2022-12-18T07:19:50;-5.90;99.90
41344;DHT22;27089;50.022;7.604;2022-12-18T07:22:17;-5.90;99.90
41344;DHT22;27089;50.022;7.604;2022-12-18T07:24:45;-5.80;99.90
41344;DHT22;27089;50.022;7.604;2022-12-18T07:27:12;-5.70;99.90
41344;DHT22;27089;50.022;7.604;2022-12-18T07:29:39;-5.80;99.90
41344;DHT22;27089;50.022;7.604;2022-12-18T07:32:06;-5.80;99.90
41344;DHT22;27089;50.022;7.604;2022-12-18T07:34:34;-5.80;99.90
41344;DHT22;27089;50.022;7.604;2022-12-18T07:37:01;-5.90;99.90
41344;DHT22;27089;50.022;7.604;2022-12-18T07:39:28;-5.90;99.90
41344;DHT22;27089;50.022;7.604;2022-12-18T07:41:56;-5.90;99.90
41344;DHT22;27089;50.022;7.604;2022-12-18T07:44:41;-5.90;99.90
41344;DHT22;27089;50.022;7.604;2022-12-18T07:47:08;-5.90;99.90
41344;DHT22;27089;50.022;7.604;2022-12-18T07:49:35;-5.90;99.90
41344;DHT22;27089;50.022;7.604;2022-12-18T07:52:02;-6.00;99.90
41344;DHT22;27089;50.022;7.604;2022-12-18T07:54:29;-6.00;99.90
41344;DHT22;27089;50.022;7.604;2022-12-18T07:56:57;-5.90;99.90
41344;DHT22;27089;50.022;7.604;2022-12-18T07:59:24;-5.90;99.90
41344;DHT22;27089;50.022;7.604;2022-12-18T08:01:51;-5.90;99.90
41344;DHT22;27089;50.022;7.604;2022-12-18T08:04:18;-5.80;99.90
41344;DHT22;27089;50.022;7.604;2022-12-18T08:06:46;-5.90;99.90
41344;DHT22;27089;50.022;7.604;2022-12-18T08:09:13;-5.80;99.90
41344;DHT22;27089;50.022;7.604;2022-12-18T08:11:40;-5.80;99.90
41344;DHT22;27089;50.022;7.604;2022-12-18T08:14:08;-5.80;99.90
41344;DHT22;27089;50.022;7.604;2022-12-18T08:16:36;-5.70;99.90
41344;DHT22;27089;50.022;7.604;2022-12-18T08:19:03;-5.70;99.90
41344;DHT22;27089;50.022;7.604;2022-12-18T08:21:31;-5.60;99.90
41344;DHT22;27089;50.022;7.604;2022-12-18T08:24:00;-5.70;99.90
41344;DHT22;27089;50.022;7.604;2022-12-18T08:26:28;-5.60;99.90
41344;DHT22;27089;50.022;7.604;2022-12-18T08:28:56;-5.60;99.90
41344;DHT22;27089;50.022;7.604;2022-12-18T08:31:26;-5.50;99.90
41344;DHT22;27089;50.022;7.604;2022-12-18T08:33:54;-5.50;99.90
41344;DHT22;27089;50.022;7.604;2022-12-18T08:36:22;-5.50;99.90
41344;DHT22;27089;50.022;7.604;2022-12-18T08:38:50;-5.60;99.90
41344;DHT22;27089;50.022;7.604;2022-12-18T08:41:17;-5.50;99.90
41344;DHT22;27089;50.022;7.604;2022-12-18T08:43:45;-5.50;99.90
41344;DHT22;27089;50.022;7.604;2022-12-18T08:46:34;-5.40;99.90
41344;DHT22;27089;50.022;7.604;2022-12-18T08:49:02;-5.30;99.90
41344;DHT22;27089;50.022;7.604;2022-12-18T08:51:29;-5.30;99.90
41344;DHT22;27089;50.022;7.604;2022-12-18T08:53:56;-5.30;99.90
41344;DHT22;27089;50.022;7.604;2022-12-18T08:56:23;-5.30;99.90
41344;DHT22;27089;50.022;7.604;2022-12-18T08:58:52;-5.20;99.90
41344;DHT22;27089;50.022;7.604;2022-12-18T09:01:21;-5.20;99.90
41344;DHT22;27089;50.022;7.604;2022-12-18T09:03:50;-5.20;99.90
41344;DHT22;27089;50.022;7.604;2022-12-18T09:06:19;-5.20;99.90
41344;DHT22;27089;50.022;7.604;2022-12-18T09:08:46;-5.20;99.90
41344;DHT22;27089;50.022;7.604;2022-12-18T09:11:15;-5.10;99.90
41344;DHT22;27089;50.022;7.604;2022-12-18T09:13:45;-5.00;99.90
41344;DHT22;27089;50.022;7.604;2022-12-18T09:16:12;-5.00;99.90
41344;DHT22;27089;50.022;7.604;2022-12-18T09:18:39;-5.00;99.90
41344;DHT22;27089;50.022;7.604;2022-12-18T09:21:12;-4.90;99.90
41344;DHT22;27089;50.022;7.604;2022-12-18T09:23:40;-4.80;99.90
41344;DHT22;27089;50.022;7.604;2022-12-18T09:26:07;-4.80;99.90
41344;DHT22;27089;50.022;7.604;2022-12-18T09:28:34;-4.70;99.90
41344;DHT22;27089;50.022;7.604;2022-12-18T09:31:05;-4.50;99.90
41344;DHT22;27089;50.022;7.604;2022-12-18T09:33:33;-4.40;99.90
41344;DHT22;27089;50.022;7.604;2022-12-18T09:36:02;-4.20;99.90
41344;DHT22;27089;50.022;7.604;2022-12-18T09:38:31;-4.10;99.90
41344;DHT22;27089;50.022;7.604;2022-12-18T09:41:00;-4.00;99.90
41344;DHT22;27089;50.022;7.604;2022-12-18T09:43:35;-3.80;99.90
41344;DHT22;27089;50.022;7.604;2022-12-18T09:46:07;-3.80;99.90
41344;DHT22;27089;50.022;7.604;2022-12-18T09:48:38;-3.70;99.90
41344;DHT22;27089;50.022;7.604;2022-12-18T09:51:13;-3.70;99.90
41344;DHT22;27089;50.022;7.604;2022-12-18T09:53:47;-3.60;99.90
41344;DHT22;27089;50.022;7.604;2022-12-18T09:56:19;-3.50;99.90
41344;DHT22;27089;50.022;7.604;2022-12-18T09:58:53;-3.40;99.90
41344;DHT22;27089;50.022;7.604;2022-12-18T10:01:22;-3.20;99.90
41344;DHT22;27089;50.022;7.604;2022-12-18T10:03:50;-3.20;99.90
41344;DHT22;27089;50.022;7.604;2022-12-18T10:06:22;-3.20;99.90
41344;DHT22;27089;50.022;7.604;2022-12-18T10:08:57;-3.20;99.90
41344;DHT22;27089;50.022;7.604;2022-12-18T10:11:34;-3.00;99.90
41344;DHT22;27089;50.022;7.604;2022-12-18T10:14:11;-2.90;99.90
41344;DHT22;27089;50.022;7.604;2022-12-18T10:16:49;-2.70;99.90
41344;DHT22;27089;50.022;7.604;2022-12-18T10:19:33;-2.60;99.90
41344;DHT22;27089;50.022;7.604;2022-12-18T10:22:11;-2.70;99.90
41344;DHT22;27089;50.022;7.604;2022-12-18T10:24:48;-2.50;99.90
41344;DHT22;27089;50.022;7.604;2022-12-18T10:27:23;-2.40;99.90
41344;DHT22;27089;50.022;7.604;2022-12-18T10:29:50;-2.50;99.90
41344;DHT22;27089;50.022;7.604;2022-12-18T10:32:19;-2.60;99.90
41344;DHT22;27089;50.022;7.604;2022-12-18T10:34:47;-2.60;99.90
41344;DHT22;27089;50.022;7.604;2022-12-18T10:37:17;-2.50;99.90
41344;DHT22;27089;50.022;7.604;2022-12-18T10:39:46;-2.50;99.90
41344;DHT22;27089;50.022;7.604;2022-12-18T10:42:18;-2.50;99.90
41344;DHT22;27089;50.022;7.604;2022-12-18T10:44:45;-2.50;99.90
41344;DHT22;27089;50.022;7.604;2022-12-18T10:47:15;-2.40;99.90
41344;DHT22;27089;50.022;7.604;2022-12-18T10:49:49;-2.40;99.90
41344;DHT22;27089;50.022;7.604;2022-12-18T10:52:19;-2.30;99.90
41344;DHT22;27089;50.022;7.604;2022-12-18T10:54:51;-2.30;99.90
41344;DHT22;27089;50.022;7.604;2022-12-18T10:57:31;-2.30;99.90
41344;DHT22;27089;50.022;7.604;2022-12-18T11:00:03;-2.30;99.90
41344;DHT22;27089;50.022;7.604;2022-12-18T11:02:40;-2.40;99.90
41344;DHT22;27089;50.022;7.604;2022-12-18T11:05:26;-2.40;99.90
41344;DHT22;27089;50.022;7.604;2022-12-18T11:07:54;-2.40;99.90
41344;DHT22;27089;50.022;7.604;2022-12-18T11:10:27;-2.20;99.90
41344;DHT22;27089;50.022;7.604;2022-12-18T11:12:55;-2.10;99.90
41344;DHT22;27089;50.022;7.604;2022-12-18T11:15:26;-2.10;99.90
41344;DHT22;27089;50.022;7.604;2022-12-18T11:17:55;-2.00;99.90
41344;DHT22;27089;50.022;7.604;2022-12-18T11:20:30;-1.90;99.90
41344;DHT22;27089;50.022;7.604;2022-12-18T11:22:59;-1.80;99.90
41344;DHT22;27089;50.022;7.604;2022-12-18T11:25:33;-2.10;99.90
41344;DHT22;27089;50.022;7.604;2022-12-18T11:28:02;-2.20;99.90
41344;DHT22;27089;50.022;7.604;2022-12-18T11:30:31;-2.20;99.90
41344;DHT22;27089;50.022;7.604;2022-12-18T11:33:03;-2.20;99.90
41344;DHT22;27089;50.022;7.604;2022-12-18T11:35:42;-2.10;99.90
41344;DHT22;27089;50.022;7.604;2022-12-18T11:38:18;-2.10;99.90
41344;DHT22;27089;50.022;7.604;2022-12-18T11:40:53;-2.10;99.90
41344;DHT22;27089;50.022;7.604;2022-12-18T11:43:26;-2.20;99.90
41344;DHT22;27089;50.022;7.604;2022-12-18T11:45:57;-2.50;99.90
41344;DHT22;27089;50.022;7.604;2022-12-18T11:48:28;-2.30;99.90
41344;DHT22;27089;50.022;7.604;2022-12-18T11:50:58;-2.10;99.90
41344;DHT22;27089;50.022;7.604;2022-12-18T11:53:26;-1.90;99.90
41344;DHT22;27089;50.022;7.604;2022-12-18T11:56:17;-1.60;99.90
41344;DHT22;27089;50.022;7.604;2022-12-18T11:58:55;-1.70;99.90
41344;DHT22;27089;50.022;7.604;2022-12-18T12:01:40;-2.00;99.90
41344;DHT22;27089;50.022;7.604;2022-12-18T12:04:43;-2.40;99.90
41344;DHT22;27089;50.022;7.604;2022-12-18T12:07:21;-2.90;99.90
41344;DHT22;27089;50.022;7.604;2022-12-18T12:09:59;-3.00;99.90
41344;DHT22;27089;50.022;7.604;2022-12-18T12:12:37;-3.10;99.90
41344;DHT22;27089;50.022;7.604;2022-12-18T12:15:25;-3.20;99.90
41344;DHT22;27089;50.022;7.604;2022-12-18T12:17:59;-3.20;99.90
41344;DHT22;27089;50.022;7.604;2022-12-18T12:20:47;-3.40;99.90
41344;DHT22;27089;50.022;7.604;2022-12-18T12:23:23;-3.60;99.90
41344;DHT22;27089;50.022;7.604;2022-12-18T12:25:59;-3.90;99.90
41344;DHT22;27089;50.022;7.604;2022-12-18T12:28:41;-4.10;99.90
41344;DHT22;27089;50.022;7.604;2022-12-18T12:31:16;-4.30;99.90
41344;DHT22;27089;50.022;7.604;2022-12-18T12:33:51;-4.30;99.90
41344;DHT22;27089;50.022;7.604;2022-12-18T12:36:27;-4.30;99.90
41344;DHT22;27089;50.022;7.604;2022-12-18T12:38:59;-4.30;99.90
41344;DHT22;27089;50.022;7.604;2022-12-18T12:41:31;-4.20;99.90
41344;DHT22;27089;50.022;7.604;2022-12-18T12:44:23;-4.20;99.90
41344;DHT22;27089;50.022;7.604;2022-12-18T12:46:52;-4.10;99.90
41344;DHT22;27089;50.022;7.604;2022-12-18T12:49:26;-3.80;99.90
41344;DHT22;27089;50.022;7.604;2022-12-18T12:51:59;-3.70;99.90
41344;DHT22;27089;50.022;7.604;2022-12-18T12:54:28;-3.50;99.90
41344;DHT22;27089;50.022;7.604;2022-12-18T12:56:58;-3.50;99.90
41344;DHT22;27089;50.022;7.604;2022-12-18T12:59:37;-3.60;99.90
41344;DHT22;27089;50.022;7.604;2022-12-18T13:02:18;-3.60;99.90
41344;DHT22;27089;50.022;7.604;2022-12-18T13:04:51;-3.60;99.90
41344;DHT22;27089;50.022;7.604;2022-12-18T13:07:26;-3.50;99.90
41344;DHT22;27089;50.022;7.604;2022-12-18T13:10:31;-3.40;99.90
41344;DHT22;27089;50.022;7.604;2022-12-18T13:13:01;-3.50;99.90
41344;DHT22;27089;50.022;7.604;2022-12-18T13:15:40;-3.60;99.90
41344;DHT22;27089;50.022;7.604;2022-12-18T13:18:19;-3.70;99.90
41344;DHT22;27089;50.022;7.604;2022-12-18T13:20:49;-3.70;99.90
41344;DHT22;27089;50.022;7.604;2022-12-18T13:26:32;-3.90;99.90
41344;DHT22;27089;50.022;7.604;2022-12-18T13:29:00;-3.90;99.90
41344;DHT22;27089;50.022;7.604;2022-12-18T13:34:36;-4.00;99.90
41344;DHT22;27089;50.022;7.604;2022-12-18T13:43:33;-3.90;99.90
41344;DHT22;27089;50.022;7.604;2022-12-18T13:46:19;-4.20;99.90
41344;DHT22;27089;50.022;7.604;2022-12-18T13:48:53;-4.20;99.90
41344;DHT22;27089;50.022;7.604;2022-12-18T13:51:24;-4.30;99.90
41344;DHT22;27089;50.022;7.604;2022-12-18T13:53:54;-4.50;99.90
41344;DHT22;27089;50.022;7.604;2022-12-18T13:56:24;-4.60;99.90
41344;DHT22;27089;50.022;7.604;2022-12-18T13:59:11;-4.60;99.90
41344;DHT22;27089;50.022;7.604;2022-12-18T14:01:43;-4.60;99.90
41344;DHT22;27089;50.022;7.604;2022-12-18T14:04:11;-4.60;99.90
41344;DHT22;27089;50.022;7.604;2022-12-18T14:06:40;-4.60;99.90
41344;DHT22;27089;50.022;7.604;2022-12-18T14:09:13;-4.70;99.90
41344;DHT22;27089;50.022;7.604;2022-12-18T14:11:46;-4.70;99.90
41344;DHT22;27089;50.022;7.604;2022-12-18T14:14:14;-4.80;99.90
41344;DHT22;27089;50.022;7.604;2022-12-18T14:16:41;-4.80;99.90
41344;DHT22;27089;50.022;7.604;2022-12-18T14:19:13;-4.80;99.90
41344;DHT22;27089;50.022;7.604;2022-12-18T14:21:46;-4.80;99.90
41344;DHT22;27089;50.022;7.604;2022-12-18T14:24:16;-4.70;99.90
41344;DHT22;27089;50.022;7.604;2022-12-18T14:26:44;-4.70;99.90
41344;DHT22;27089;50.022;7.604;2022-12-18T14:29:23;-4.80;99.90
41344;DHT22;27089;50.022;7.604;2022-12-18T14:32:07;-4.80;99.90
41344;DHT22;27089;50.022;7.604;2022-12-18T14:34:34;-4.80;99.90
41344;DHT22;27089;50.022;7.604;2022-12-18T14:37:03;-4.80;99.90
41344;DHT22;27089;50.022;7.604;2022-12-18T14:39:30;-4.90;99.90
41344;DHT22;27089;50.022;7.604;2022-12-18T14:41:57;-4.90;99.90
41344;DHT22;27089;50.022;7.604;2022-12-18T14:44:24;-4.90;99.90
41344;DHT22;27089;50.022;7.604;2022-12-18T14:46:51;-4.80;99.90
41344;DHT22;27089;50.022;7.604;2022-12-18T14:49:21;-4.80;99.90
41344;DHT22;27089;50.022;7.604;2022-12-18T14:51:50;-4.90;99.90
41344;DHT22;27089;50.022;7.604;2022-12-18T14:54:20;-4.80;99.90
41344;DHT22;27089;50.022;7.604;2022-12-18T14:56:49;-4.80;99.90
41344;DHT22;27089;50.022;7.604;2022-12-18T14:59:20;-4.70;99.90
41344;DHT22;27089;50.022;7.604;2022-12-18T15:01:59;-4.70;99.90
41344;DHT22;27089;50.022;7.604;2022-12-18T15:04:29;-4.70;99.90
41344;DHT22;27089;50.022;7.604;2022-12-18T15:07:05;-4.70;99.90
41344;DHT22;27089;50.022;7.604;2022-12-18T15:09:35;-4.70;99.90
41344;DHT22;27089;50.022;7.604;2022-12-18T15:12:03;-4.60;99.90
41344;DHT22;27089;50.022;7.604;2022-12-18T15:14:34;-4.60;99.90
41344;DHT22;27089;50.022;7.604;2022-12-18T15:17:03;-4.50;99.90
41344;DHT22;27089;50.022;7.604;2022-12-18T15:19:37;-4.50;99.90
41344;DHT22;27089;50.022;7.604;2022-12-18T15:22:24;-4.50;99.90
41344;DHT22;27089;50.022;7.604;2022-12-18T15:24:53;-4.50;99.90
41344;DHT22;27089;50.022;7.604;2022-12-18T15:27:26;-4.50;99.90
41344;DHT22;27089;50.022;7.604;2022-12-18T15:30:01;-4.50;99.90
41344;DHT22;27089;50.022;7.604;2022-12-18T15:32:28;-4.50;99.90
41344;DHT22;27089;50.022;7.604;2022-12-18T15:35:03;-4.50;99.90
41344;DHT22;27089;50.022;7.604;2022-12-18T15:37:30;-4.50;99.90
41344;DHT22;27089;50.022;7.604;2022-12-18T15:39:58;-4.50;99.90
41344;DHT22;27089;50.022;7.604;2022-12-18T15:42:25;-4.50;99.90
41344;DHT22;27089;50.022;7.604;2022-12-18T15:45:12;-4.50;99.90
41344;DHT22;27089;50.022;7.604;2022-12-18T15:47:39;-4.40;99.90
41344;DHT22;27089;50.022;7.604;2022-12-18T15:50:08;-4.40;99.90
41344;DHT22;27089;50.022;7.604;2022-12-18T15:52:39;-4.50;99.90
41344;DHT22;27089;50.022;7.604;2022-12-18T15:55:11;-4.50;99.90
41344;DHT22;27089;50.022;7.604;2022-12-18T15:57:56;-4.50;99.90
41344;DHT22;27089;50.022;7.604;2022-12-18T16:00:23;-4.50;99.90
41344;DHT22;27089;50.022;7.604;2022-12-18T16:02:50;-4.60;99.90
41344;DHT22;27089;50.022;7.604;2022-12-18T16:05:18;-4.60;99.90